createdAt,value
2017-05-21T00:00:50.414Z,21.50
2017-05-21T00:03:20.551Z,21.30
2017-05-21T00:05:50.535Z,21.50
2017-05-21T00:08:20.539Z,21.60
2017-05-21T00:10:49.881Z,21.60
2017-05-21T00:13:21.450Z,21.90
2017-05-21T00:15:51.646Z,22.00
2017-05-21T00:18:22.055Z,22.00
2017-05-21T00:20:51.732Z,22.00
2017-05-21T00:23:21.381Z,22.20
2017-05-21T00:25:51.507Z,22.00
2017-05-21T00:28:21.574Z,22.00
2017-05-21T00:30:50.997Z,22.10
2017-05-21T00:33:21.143Z,22.10
2017-05-21T00:35:51.419Z,22.10
2017-05-21T00:38:21.419Z,22.20
2017-05-21T00:40:51.636Z,22.10
2017-05-21T00:43:22.055Z,22.10
2017-05-21T00:45:52.406Z,22.10
2017-05-21T00:48:22.431Z,22.10
2017-05-21T00:50:52.743Z,22.10
2017-05-21T00:53:22.788Z,22.10
2017-05-21T00:55:53.004Z,22.10
2017-05-21T00:58:22.864Z,22.20
2017-05-21T01:00:53.038Z,22.20
2017-05-21T01:03:22.867Z,22.20
2017-05-21T01:05:53.299Z,22.20
2017-05-21T01:08:23.693Z,22.30
2017-05-21T01:10:53.927Z,22.30
2017-05-21T01:13:25.134Z,22.40
2017-05-21T01:15:56.504Z,22.50
2017-05-21T01:18:26.581Z,22.60
2017-05-21T01:20:57.057Z,22.50
2017-05-21T01:23:27.344Z,22.50
2017-05-21T01:25:57.919Z,22.20
2017-05-21T01:28:29.447Z,22.00
2017-05-21T01:30:59.541Z,22.00
2017-05-21T01:33:29.798Z,22.10
2017-05-21T01:36:00.122Z,22.10
2017-05-21T01:38:30.038Z,22.20
2017-05-21T01:41:00.171Z,22.20
2017-05-21T01:43:30.544Z,22.30
2017-05-21T01:45:59.890Z,22.30
2017-05-21T01:48:30.013Z,22.40
2017-05-21T01:50:59.948Z,22.50
2017-05-21T01:53:30.039Z,22.40
2017-05-21T01:56:00.461Z,22.40
2017-05-21T01:58:30.479Z,22.40
2017-05-21T02:01:00.482Z,22.40
2017-05-21T02:03:30.623Z,22.30
2017-05-21T02:06:00.641Z,22.30
2017-05-21T02:08:30.841Z,22.30
2017-05-21T02:11:00.956Z,22.30
2017-05-21T02:13:32.047Z,22.50
2017-05-21T02:16:02.096Z,22.30
2017-05-21T02:18:32.312Z,22.30
2017-05-21T02:21:02.695Z,22.20
2017-05-21T02:23:33.072Z,22.20
2017-05-21T02:26:03.306Z,22.30
2017-05-21T02:28:33.500Z,22.30
2017-05-21T02:31:03.691Z,22.40
2017-05-21T02:33:34.794Z,22.40
2017-05-21T02:36:05.172Z,22.40
2017-05-21T02:38:34.609Z,22.40
2017-05-21T02:41:04.885Z,22.20
2017-05-21T02:43:34.885Z,22.10
2017-05-21T02:46:05.108Z,22.10
2017-05-21T02:48:35.529Z,22.10
2017-05-21T02:51:06.064Z,22.20
2017-05-21T02:53:36.464Z,22.00
2017-05-21T02:56:06.764Z,21.80
2017-05-21T02:58:37.107Z,21.50
2017-05-21T03:01:07.229Z,21.20
2017-05-21T03:03:44.806Z,21.20
2017-05-21T03:06:15.327Z,21.10
2017-05-21T03:08:45.330Z,21.20
2017-05-21T03:11:15.553Z,21.10
2017-05-21T03:13:48.035Z,21.00
2017-05-21T03:16:18.450Z,21.00
2017-05-21T03:18:48.729Z,20.90
2017-05-21T03:21:19.869Z,20.80
2017-05-21T03:23:50.030Z,20.60
2017-05-21T03:26:20.351Z,20.50
2017-05-21T03:28:50.252Z,20.60
2017-05-21T03:31:20.398Z,20.50
2017-05-21T03:33:50.522Z,20.40
2017-05-21T03:36:20.715Z,20.20
2017-05-21T03:38:50.837Z,20.10
2017-05-21T03:41:21.280Z,19.90
2017-05-21T03:43:51.617Z,19.90
2017-05-21T03:46:21.806Z,19.90
2017-05-21T03:48:51.974Z,19.80
2017-05-21T03:51:22.336Z,19.60
2017-05-21T03:53:52.731Z,19.60
2017-05-21T03:56:22.989Z,19.50
2017-05-21T03:58:53.134Z,19.30
2017-05-21T04:01:23.440Z,19.20
2017-05-21T04:03:53.565Z,19.20
2017-05-21T04:06:23.730Z,19.10
2017-05-21T04:08:54.212Z,19.00
2017-05-21T04:11:24.538Z,18.90
2017-05-21T04:13:55.415Z,19.00
2017-05-21T04:16:25.760Z,18.80
2017-05-21T04:18:55.382Z,18.80
2017-05-21T04:21:25.523Z,18.70
2017-05-21T04:23:55.633Z,18.50
2017-05-21T04:26:25.441Z,18.50
2017-05-21T04:28:54.911Z,18.50
2017-05-21T04:31:24.981Z,18.40
2017-05-21T04:33:55.406Z,18.40
2017-05-21T04:36:25.692Z,18.30
2017-05-21T04:38:55.235Z,18.30
2017-05-21T04:41:25.477Z,18.30
2017-05-21T04:43:55.785Z,18.30
2017-05-21T04:46:26.101Z,18.20
2017-05-21T04:48:56.300Z,18.20
2017-05-21T04:51:26.968Z,18.20
2017-05-21T04:53:57.084Z,18.10
2017-05-21T04:56:27.450Z,18.10
2017-05-21T04:58:57.236Z,18.10
2017-05-21T05:01:27.549Z,18.00
2017-05-21T05:03:57.956Z,18.00
2017-05-21T05:06:28.082Z,18.10
2017-05-21T05:08:58.616Z,18.00
2017-05-21T05:11:28.809Z,18.00
2017-05-21T05:13:59.662Z,18.00
2017-05-21T05:16:31.366Z,17.90
2017-05-21T05:19:01.540Z,17.90
2017-05-21T05:21:31.799Z,17.70
2017-05-21T05:24:02.114Z,17.80
2017-05-21T05:26:32.615Z,17.80
2017-05-21T05:29:03.051Z,17.80
2017-05-21T05:31:33.102Z,17.70
2017-05-21T05:34:03.934Z,17.70
2017-05-21T05:36:34.193Z,17.60
2017-05-21T05:39:04.818Z,17.50
2017-05-21T05:41:34.720Z,17.50
2017-05-21T05:44:05.235Z,17.40
2017-05-21T05:46:35.340Z,17.40
2017-05-21T05:49:05.633Z,17.30
2017-05-21T05:51:36.406Z,17.10
2017-05-21T05:54:07.825Z,17.10
2017-05-21T05:56:38.074Z,17.00
2017-05-21T05:59:08.593Z,16.80
2017-05-21T06:01:39.917Z,16.80
2017-05-21T06:04:10.880Z,16.80
2017-05-21T06:06:41.538Z,16.80
2017-05-21T06:11:46.877Z,16.70
2017-05-21T06:14:18.534Z,16.80
2017-05-21T06:16:48.880Z,16.80
2017-05-21T06:19:19.062Z,16.80
2017-05-21T06:21:49.116Z,16.80
2017-05-21T06:24:19.367Z,16.80
2017-05-21T06:26:49.044Z,16.80
2017-05-21T06:29:19.161Z,16.70
2017-05-21T06:31:49.177Z,16.70
2017-05-21T06:34:19.685Z,16.50
2017-05-21T06:36:50.026Z,16.40
2017-05-21T06:39:20.427Z,16.40
2017-05-21T06:41:50.674Z,16.40
2017-05-21T06:44:20.954Z,16.30
2017-05-21T06:46:51.315Z,16.30
2017-05-21T06:49:21.410Z,16.30
2017-05-21T06:51:51.551Z,16.30
2017-05-21T06:54:21.986Z,16.30
2017-05-21T06:56:52.143Z,16.30
2017-05-21T06:59:22.415Z,16.20
2017-05-21T07:01:52.569Z,16.20
2017-05-21T07:04:22.836Z,16.10
2017-05-21T07:06:53.150Z,16.00
2017-05-21T07:09:23.276Z,16.00
2017-05-21T07:11:53.425Z,16.00
2017-05-21T07:14:24.643Z,16.00
2017-05-21T07:16:55.030Z,15.90
2017-05-21T07:19:25.150Z,15.90
2017-05-21T07:21:55.091Z,15.90
2017-05-21T07:24:24.884Z,15.90
2017-05-21T07:26:54.995Z,15.90
2017-05-21T07:29:25.276Z,15.80
2017-05-21T07:31:55.534Z,15.70
2017-05-21T07:34:25.838Z,15.60
2017-05-21T07:36:56.123Z,15.60
2017-05-21T07:39:25.671Z,15.50
2017-05-21T07:41:55.851Z,15.50
2017-05-21T07:44:25.277Z,15.40
2017-05-21T07:46:53.865Z,15.40
2017-05-21T07:49:22.595Z,15.40
2017-05-21T07:51:51.289Z,15.40
2017-05-21T07:54:21.310Z,15.30
2017-05-21T07:56:51.370Z,15.30
2017-05-21T07:59:21.302Z,15.20
2017-05-21T08:01:51.584Z,15.20
2017-05-21T08:04:21.146Z,15.20
2017-05-21T08:06:51.172Z,15.10
2017-05-21T08:09:21.583Z,15.00
2017-05-21T08:11:51.888Z,15.00
2017-05-21T08:14:21.397Z,15.00
2017-05-21T08:16:52.646Z,14.90
2017-05-21T08:19:23.248Z,14.90
2017-05-21T08:21:53.595Z,14.90
2017-05-21T08:24:23.807Z,14.90
2017-05-21T08:39:43.049Z,15.30
2017-05-21T08:42:12.870Z,15.20
2017-05-21T08:44:42.977Z,14.90
2017-05-21T08:47:13.506Z,14.90
2017-05-21T08:49:43.689Z,14.90
2017-05-21T08:52:14.497Z,14.90
2017-05-21T08:54:44.912Z,14.80
2017-05-21T08:57:15.343Z,14.70
2017-05-21T08:59:46.876Z,14.70
2017-05-21T09:02:17.250Z,14.40
2017-05-21T09:04:47.696Z,14.30
2017-05-21T09:07:18.003Z,14.30
2017-05-21T09:09:48.278Z,14.20
2017-05-21T09:12:18.659Z,14.00
2017-05-21T09:14:49.094Z,14.00
2017-05-21T09:17:21.459Z,14.00
2017-05-21T09:19:51.381Z,14.00
2017-05-21T09:22:21.382Z,14.00
2017-05-21T09:24:51.463Z,14.00
2017-05-21T09:27:21.751Z,14.10
2017-05-21T09:29:51.995Z,14.10
2017-05-21T09:32:22.341Z,14.00
2017-05-21T09:34:52.501Z,13.70
2017-05-21T09:37:22.832Z,13.60
2017-05-21T09:39:53.242Z,13.60
2017-05-21T09:42:23.191Z,13.60
2017-05-21T09:44:52.707Z,13.60
2017-05-21T09:47:22.617Z,13.50
2017-05-21T09:49:52.882Z,13.50
2017-05-21T09:52:23.134Z,13.40
2017-05-21T09:54:53.078Z,13.30
2017-05-21T09:57:22.499Z,13.30
2017-05-21T09:59:52.743Z,13.40
2017-05-21T10:02:22.881Z,13.50
2017-05-21T10:04:52.878Z,13.50
2017-05-21T10:07:23.548Z,13.40
2017-05-21T10:09:53.728Z,13.30
2017-05-21T10:12:23.738Z,13.10
2017-05-21T10:14:53.004Z,13.00
2017-05-21T10:17:23.953Z,13.20
2017-05-21T10:19:54.051Z,13.20
2017-05-21T10:22:24.107Z,13.30
2017-05-21T10:24:54.403Z,13.10
2017-05-21T10:27:24.659Z,13.20
2017-05-21T10:29:54.812Z,13.20
2017-05-21T10:32:25.096Z,13.30
2017-05-21T10:34:55.169Z,13.20
2017-05-21T10:37:25.172Z,13.10
2017-05-21T10:39:55.531Z,13.20
2017-05-21T10:42:25.640Z,13.20
2017-05-21T10:44:56.000Z,13.20
2017-05-21T10:47:25.531Z,13.20
2017-05-21T10:49:55.512Z,13.10
2017-05-21T10:52:24.991Z,13.10
2017-05-21T10:54:55.219Z,13.20
2017-05-21T10:57:25.155Z,13.00
2017-05-21T10:59:55.294Z,13.00
2017-05-21T11:02:25.570Z,13.00
2017-05-21T11:04:55.621Z,13.00
2017-05-21T11:07:25.148Z,13.00
2017-05-21T11:09:55.468Z,12.90
2017-05-21T11:12:25.809Z,12.90
2017-05-21T11:15:03.114Z,12.90
2017-05-21T11:17:34.525Z,13.00
2017-05-21T11:20:05.046Z,12.70
2017-05-21T11:22:35.398Z,12.70
2017-05-21T11:25:05.476Z,12.80
2017-05-21T11:27:35.746Z,12.80
2017-05-21T11:30:05.866Z,12.80
2017-05-21T11:32:36.186Z,12.70
2017-05-21T11:35:07.434Z,12.70
2017-05-21T11:37:37.824Z,12.80
2017-05-21T11:40:08.156Z,12.70
2017-05-21T11:42:38.386Z,12.70
2017-05-21T11:45:08.475Z,12.60
2017-05-21T11:47:38.498Z,12.70
2017-05-21T11:50:08.762Z,12.70
2017-05-21T11:52:38.753Z,12.70
2017-05-21T11:55:08.351Z,12.70
2017-05-21T11:57:38.433Z,12.70
2017-05-21T12:00:08.793Z,12.70
2017-05-21T12:02:38.291Z,12.60
2017-05-21T12:05:08.427Z,12.70
2017-05-21T12:07:38.854Z,12.60
2017-05-21T12:10:08.053Z,12.50
2017-05-21T12:12:38.233Z,12.40
2017-05-21T12:15:08.339Z,12.30
2017-05-21T12:17:38.987Z,12.30
2017-05-21T12:20:09.288Z,12.40
2017-05-21T12:22:39.605Z,12.40
2017-05-21T12:25:09.810Z,12.40
2017-05-21T12:27:40.002Z,12.40
2017-05-21T12:30:10.191Z,12.40
2017-05-21T12:32:40.069Z,12.30
2017-05-21T12:35:10.263Z,12.20
2017-05-21T12:37:40.053Z,12.20
2017-05-21T12:40:10.379Z,12.20
2017-05-21T12:42:40.093Z,12.20
2017-05-21T12:45:10.064Z,12.60
2017-05-21T12:47:40.094Z,12.30
2017-05-21T12:50:10.302Z,12.20
2017-05-21T12:52:40.592Z,12.30
2017-05-21T12:55:10.827Z,12.30
2017-05-21T12:57:40.998Z,12.10
2017-05-21T13:00:11.338Z,12.10
2017-05-21T13:02:41.537Z,12.10
2017-05-21T13:05:11.744Z,12.40
2017-05-21T13:07:41.818Z,12.10
2017-05-21T13:10:11.989Z,12.20
2017-05-21T13:12:42.425Z,12.30
2017-05-21T13:15:12.739Z,12.30
2017-05-21T13:17:44.092Z,12.40
2017-05-21T13:20:14.272Z,12.60
2017-05-21T13:22:44.357Z,12.70
2017-05-21T13:25:14.775Z,12.80
2017-05-21T13:27:44.910Z,12.90
2017-05-21T13:30:15.071Z,13.00
2017-05-21T13:32:45.344Z,13.20
2017-05-21T13:35:15.583Z,13.40
2017-05-21T13:37:48.803Z,13.60
2017-05-21T13:40:19.055Z,13.80
2017-05-21T13:42:49.141Z,13.90
2017-05-21T13:45:19.315Z,14.10
2017-05-21T13:47:49.393Z,14.30
2017-05-21T13:50:19.783Z,14.50
2017-05-21T13:52:49.826Z,14.60
2017-05-21T13:55:20.293Z,14.90
2017-05-21T13:57:50.663Z,15.20
2017-05-21T14:00:21.031Z,15.70
2017-05-21T14:02:51.656Z,16.30
2017-05-21T14:05:21.750Z,16.70
2017-05-21T14:07:51.732Z,17.10
2017-05-21T14:10:21.864Z,17.20
2017-05-21T14:12:52.092Z,17.30
2017-05-21T14:15:22.072Z,17.00
2017-05-21T14:17:52.697Z,16.90
2017-05-21T14:20:23.092Z,17.00
2017-05-21T14:22:52.945Z,16.80
2017-05-21T14:25:23.138Z,16.90
2017-05-21T14:27:53.226Z,17.00
2017-05-21T14:30:23.428Z,16.80
2017-05-21T14:32:53.580Z,16.80
2017-05-21T14:35:23.217Z,16.90
2017-05-21T14:37:53.425Z,17.40
2017-05-21T14:40:22.952Z,17.30
2017-05-21T14:42:52.893Z,17.60
2017-05-21T14:45:22.789Z,17.50
2017-05-21T14:47:52.982Z,17.50
2017-05-21T14:50:23.085Z,17.30
2017-05-21T14:52:53.590Z,17.40
2017-05-21T14:55:23.916Z,17.30
2017-05-21T14:57:54.091Z,17.60
2017-05-21T15:00:24.335Z,18.30
2017-05-21T15:02:54.416Z,19.10
2017-05-21T15:05:24.682Z,19.80
2017-05-21T15:07:54.963Z,20.80
2017-05-21T15:10:25.432Z,21.90
2017-05-21T15:12:55.442Z,22.80
2017-05-21T15:15:25.844Z,23.90
2017-05-21T15:17:56.476Z,23.80
2017-05-21T15:20:26.948Z,26.00
2017-05-21T15:22:57.679Z,26.50
2017-05-21T15:25:27.574Z,27.70
2017-05-21T15:27:58.006Z,28.90
2017-05-21T15:30:27.893Z,30.10
2017-05-21T15:32:58.084Z,30.90
2017-05-21T15:35:28.492Z,32.40
2017-05-21T15:37:58.622Z,33.70
2017-05-21T15:40:28.759Z,35.20
2017-05-21T15:42:59.103Z,34.20
2017-05-21T15:45:29.299Z,33.70
2017-05-21T15:47:59.698Z,34.70
2017-05-21T15:50:29.937Z,35.80
2017-05-21T15:53:00.075Z,35.30
2017-05-21T15:55:29.434Z,35.20
2017-05-21T15:57:59.515Z,36.60
2017-05-21T16:00:29.979Z,35.50
2017-05-21T16:03:00.086Z,36.30
2017-05-21T16:05:30.524Z,36.20
2017-05-21T16:08:00.648Z,36.40
2017-05-21T16:10:30.741Z,37.30
2017-05-21T16:13:01.782Z,37.30
2017-05-21T16:15:32.561Z,38.20
2017-05-21T16:18:03.271Z,37.60
2017-05-21T16:20:33.243Z,33.50
2017-05-21T16:23:03.423Z,34.60
2017-05-21T16:25:33.637Z,34.60
2017-05-21T16:28:03.943Z,35.10
2017-05-21T16:30:34.085Z,35.30
2017-05-21T16:33:04.651Z,36.40
2017-05-21T16:35:34.910Z,36.80
2017-05-21T16:38:05.021Z,36.50
2017-05-21T16:40:34.647Z,36.40
2017-05-21T16:43:05.213Z,37.50
2017-05-21T16:45:35.946Z,37.30
2017-05-21T16:48:06.277Z,37.00
2017-05-21T16:50:37.010Z,36.80
2017-05-21T16:53:07.822Z,36.80
2017-05-21T16:55:38.665Z,38.00
2017-05-21T16:58:09.181Z,39.40
2017-05-21T17:00:40.408Z,39.00
2017-05-21T17:03:10.877Z,38.60
2017-05-21T17:05:40.346Z,39.00
2017-05-21T17:08:11.002Z,36.80
2017-05-21T17:10:41.726Z,37.30
2017-05-21T17:13:11.842Z,36.60
2017-05-21T17:15:42.287Z,37.80
2017-05-21T17:18:13.142Z,37.90
2017-05-21T17:20:43.580Z,37.20
2017-05-21T17:23:13.780Z,38.90
2017-05-21T17:25:44.217Z,38.70
2017-05-21T17:28:14.594Z,38.60
2017-05-21T17:30:44.859Z,38.90
2017-05-21T17:33:14.860Z,39.20
2017-05-21T17:35:45.019Z,37.90
2017-05-21T17:38:14.393Z,37.90
2017-05-21T17:40:44.770Z,39.80
2017-05-21T17:43:15.319Z,39.00
2017-05-21T17:45:45.595Z,37.20
2017-05-21T17:48:15.863Z,37.90
2017-05-21T17:50:46.334Z,39.30
2017-05-21T17:53:16.488Z,40.30
2017-05-21T17:55:46.738Z,41.30
2017-05-21T17:58:16.928Z,39.00
2017-05-21T18:00:47.310Z,39.10
2017-05-21T18:03:17.681Z,40.20
2017-05-21T18:05:48.008Z,40.50
2017-05-21T18:08:18.200Z,39.60
2017-05-21T18:10:48.186Z,39.50
2017-05-21T18:13:18.517Z,38.90
2017-05-21T18:15:48.641Z,40.40
2017-05-21T18:18:20.639Z,38.70
2017-05-21T18:20:52.709Z,39.20
2017-05-21T18:23:22.931Z,40.50
2017-05-21T18:25:53.001Z,40.90
2017-05-21T18:28:23.284Z,40.90
2017-05-21T18:30:53.362Z,40.50
2017-05-21T18:33:23.664Z,39.90
2017-05-21T18:35:54.094Z,39.80
2017-05-21T18:38:24.314Z,37.90
2017-05-21T18:40:54.865Z,38.10
2017-05-21T18:43:24.927Z,38.00
2017-05-21T18:45:55.027Z,38.00
2017-05-21T18:48:25.035Z,37.60
2017-05-21T18:50:55.256Z,38.60
2017-05-21T18:53:25.469Z,39.00
2017-05-21T18:55:55.854Z,39.50
2017-05-21T18:58:25.467Z,39.50
2017-05-21T19:00:55.543Z,38.90
2017-05-21T19:03:25.460Z,38.60
2017-05-21T19:05:55.717Z,38.50
2017-05-21T19:08:25.863Z,38.50
2017-05-21T19:10:56.003Z,38.80
2017-05-21T19:13:26.062Z,39.30
2017-05-21T19:15:56.168Z,39.30
2017-05-21T19:18:27.181Z,37.70
2017-05-21T19:20:57.400Z,36.70
2017-05-21T19:23:27.428Z,37.40
2017-05-21T19:25:57.833Z,38.20
2017-05-21T19:28:27.796Z,38.40
2017-05-21T19:30:57.474Z,38.40
2017-05-21T19:33:28.007Z,37.60
2017-05-21T19:35:58.124Z,38.10
2017-05-21T19:38:28.366Z,38.10
2017-05-21T19:40:58.587Z,37.10
2017-05-21T19:43:28.816Z,37.00
2017-05-21T19:45:58.281Z,37.00
2017-05-21T19:48:28.412Z,36.00
2017-05-21T19:50:58.582Z,34.30
2017-05-21T19:53:28.194Z,34.20
2017-05-21T19:55:58.557Z,33.40
2017-05-21T19:58:35.757Z,32.60
2017-05-21T20:01:06.129Z,31.00
2017-05-21T20:03:35.983Z,31.00
2017-05-21T20:06:06.110Z,30.30
2017-05-21T20:08:36.462Z,29.80
2017-05-21T20:11:06.669Z,29.10
2017-05-21T20:13:36.798Z,29.20
2017-05-21T20:16:07.196Z,29.10
2017-05-21T20:18:39.193Z,28.80
2017-05-21T20:21:09.357Z,28.50
2017-05-21T20:23:39.436Z,28.50
2017-05-21T20:26:08.592Z,28.50
2017-05-21T20:28:38.737Z,28.60
2017-05-21T20:31:08.874Z,28.40
2017-05-21T20:33:38.406Z,28.40
2017-05-21T20:36:08.067Z,28.90
2017-05-21T20:38:38.193Z,28.80
2017-05-21T20:41:08.406Z,28.70
2017-05-21T20:43:38.724Z,28.80
2017-05-21T20:46:08.901Z,28.80
2017-05-21T20:48:39.212Z,28.60
2017-05-21T20:51:08.873Z,28.60
2017-05-21T20:53:39.335Z,28.20
2017-05-21T20:56:08.883Z,28.20
2017-05-21T20:58:38.976Z,28.20
2017-05-21T21:01:09.285Z,27.80
2017-05-21T21:03:39.407Z,27.90
2017-05-21T21:06:17.239Z,28.00
2017-05-21T21:08:47.513Z,28.00
2017-05-21T21:11:17.581Z,28.10
2017-05-21T21:13:47.501Z,28.10
2017-05-21T21:16:17.703Z,28.20
2017-05-21T21:18:48.405Z,28.50
2017-05-21T21:21:18.599Z,28.40
2017-05-21T21:23:48.620Z,28.50
2017-05-21T21:26:18.939Z,28.40
2017-05-21T21:28:48.997Z,28.40
2017-05-21T21:31:19.196Z,28.40
2017-05-21T21:33:49.612Z,28.50
2017-05-21T21:36:19.924Z,28.50
2017-05-21T21:38:49.939Z,28.40
2017-05-21T21:41:20.007Z,28.40
2017-05-21T21:43:49.474Z,28.40
2017-05-21T21:46:19.846Z,28.20
2017-05-21T21:48:49.252Z,28.20
2017-05-21T21:51:19.824Z,28.20
2017-05-21T21:53:49.983Z,28.20
2017-05-21T21:56:20.303Z,28.00
2017-05-21T21:58:50.514Z,27.90
2017-05-21T22:01:20.652Z,28.00
2017-05-21T22:03:50.838Z,27.80
2017-05-21T22:06:21.210Z,28.00
2017-05-21T22:08:51.398Z,28.00
2017-05-21T22:11:21.745Z,27.90
2017-05-21T22:13:50.413Z,27.90
2017-05-21T22:16:20.400Z,27.90
2017-05-21T22:18:51.879Z,27.70
2017-05-21T22:21:22.366Z,27.70
2017-05-21T22:23:52.692Z,27.80
2017-05-21T22:26:23.012Z,27.90
2017-05-21T22:28:53.071Z,28.00
2017-05-21T22:31:23.392Z,28.10
2017-05-21T22:33:53.732Z,28.30
2017-05-21T22:36:24.047Z,28.50
2017-05-21T22:38:54.431Z,28.60
2017-05-21T22:41:24.659Z,28.60
2017-05-21T22:43:54.895Z,28.50
2017-05-21T22:46:25.219Z,28.40
2017-05-21T22:48:55.599Z,28.40
2017-05-21T22:51:25.556Z,28.40
2017-05-21T22:54:02.199Z,28.30
2017-05-21T22:56:32.190Z,28.00
2017-05-21T22:59:01.800Z,28.10
2017-05-21T23:01:31.982Z,28.20
2017-05-21T23:04:02.084Z,28.40
2017-05-21T23:06:32.321Z,28.30
2017-05-21T23:09:02.676Z,28.20
2017-05-21T23:11:32.912Z,28.10
2017-05-21T23:14:02.228Z,28.10
2017-05-21T23:16:33.970Z,28.40
2017-05-21T23:19:04.791Z,28.40
2017-05-21T23:21:34.933Z,28.20
2017-05-21T23:24:05.124Z,28.20
2017-05-21T23:26:35.315Z,28.10
2017-05-21T23:29:05.527Z,28.10
2017-05-21T23:31:35.770Z,28.20
2017-05-21T23:34:06.180Z,28.20
2017-05-21T23:36:36.416Z,28.40
2017-05-21T23:39:06.380Z,28.50
2017-05-21T23:41:36.771Z,28.50
2017-05-21T23:44:07.135Z,28.40
2017-05-21T23:46:37.323Z,28.50
2017-05-21T23:49:07.400Z,28.60
2017-05-21T23:51:37.744Z,28.50
2017-05-21T23:54:07.962Z,28.50
2017-05-21T23:56:38.099Z,28.60
2017-05-21T23:59:08.235Z,28.70
